createdAt,value
2023-01-30T04:32:00.958Z,12.47
2023-01-30T04:47:10.060Z,12.80
2023-01-30T05:02:14.780Z,11.90
2023-01-30T05:17:19.245Z,12.60
2023-01-30T05:32:23.941Z,11.97
2023-01-30T05:47:28.345Z,12.60
2023-01-30T06:02:32.809Z,11.20
2023-01-30T06:17:37.369Z,11.23
2023-01-30T06:32:42.719Z,11.33
2023-01-30T06:47:48.195Z,11.97
2023-01-30T07:02:52.696Z,9.80
2023-01-30T07:17:58.579Z,10.40
2023-01-30T07:33:05.211Z,11.00
2023-01-30T07:48:10.875Z,9.80
2023-01-30T08:03:17.282Z,10.03
2023-01-30T08:18:21.656Z,10.07
2023-01-30T08:33:26.793Z,9.87
2023-01-30T08:48:43.315Z,8.63
2023-01-30T09:03:53.150Z,8.43
2023-01-30T09:18:57.749Z,8.40
2023-01-30T09:34:02.369Z,8.60
2023-01-30T09:49:18.869Z,8.37
2023-01-30T10:04:29.001Z,7.37
2023-01-30T10:19:53.072Z,7.97
2023-01-30T10:50:16.200Z,6.23
2023-01-30T11:05:25.144Z,5.33
2023-01-30T11:20:29.661Z,5.30
2023-01-30T11:35:36.645Z,4.73
2023-01-30T11:50:46.228Z,4.80
2023-01-30T12:05:55.400Z,5.77
2023-01-30T12:21:02.243Z,4.77
2023-01-30T12:36:15.557Z,4.50
2023-01-30T12:51:37.417Z,4.27
2023-01-30T13:06:53.442Z,4.23
2023-01-30T13:22:05.890Z,4.30
2023-01-30T13:37:14.194Z,5.47
2023-01-30T13:52:32.818Z,4.47
2023-01-30T14:07:41.645Z,4.70
2023-01-30T14:22:55.476Z,4.30
2023-01-30T14:38:16.653Z,4.43
2023-01-30T14:53:26.085Z,4.10
2023-01-30T15:08:30.592Z,4.67
2023-01-30T15:24:02.838Z,4.70
2023-01-30T15:39:17.455Z,5.77
2023-01-30T15:54:24.916Z,5.63
2023-01-30T16:09:29.282Z,5.60
2023-01-30T16:39:39.614Z,3.57
2023-01-30T16:54:49.037Z,3.87
2023-01-30T17:09:53.612Z,4.60
2023-01-30T17:25:03.239Z,4.93
2023-01-30T17:40:17.920Z,6.10
2023-01-30T17:55:22.637Z,5.50
2023-01-30T18:10:27.177Z,7.37
2023-01-30T18:25:31.641Z,8.10
2023-01-30T18:40:38.286Z,7.80
2023-01-30T18:55:50.378Z,7.27
2023-01-30T19:10:55.024Z,8.90
2023-01-30T19:26:00.897Z,9.70
2023-01-30T19:41:11.506Z,8.87
2023-01-30T19:56:16.787Z,9.33
2023-01-30T20:11:21.902Z,9.80
2023-01-30T20:26:28.573Z,12.10
2023-01-30T20:41:35.598Z,11.33
2023-01-30T20:56:42.885Z,14.57
2023-01-30T21:11:48.034Z,11.87
